sensor_id;sensor_type;location;lat;lon;timestamp;temperature;humidity
69208;SHT31;70114;47.690;8.898;2023-10-09T00:00:33;14.85;74.61
69208;SHT31;70114;47.690;8.898;2023-10-09T00:03:05;14.88;74.79
69208;SHT31;70114;47.690;8.898;2023-10-09T00:05:32;14.89;74.72
69208;SHT31;70114;47.690;8.898;2023-10-09T00:08:10;14.85;75.03
69208;SHT31;70114;47.690;8.898;2023-10-09T00:10:37;14.78;76.01
69208;SHT31;70114;47.690;8.898;2023-10-09T00:13:14;14.84;74.85
69208;SHT31;70114;47.690;8.898;2023-10-09T00:15:39;14.85;74.83
69208;SHT31;70114;47.690;8.898;2023-10-09T00:18:06;14.86;74.65
69208;SHT31;70114;47.690;8.898;2023-10-09T00:20:37;14.74;75.01
69208;SHT31;70114;47.690;8.898;2023-10-09T00:23:10;14.78;75.03
69208;SHT31;70114;47.690;8.898;2023-10-09T00:25:48;14.76;75.29
69208;SHT31;70114;47.690;8.898;2023-10-09T00:28:30;14.74;75.01
69208;SHT31;70114;47.690;8.898;2023-10-09T00:30:55;14.60;75.49
69208;SHT31;70114;47.690;8.898;2023-10-09T00:33:21;14.61;75.52
69208;SHT31;70114;47.690;8.898;2023-10-09T00:35:48;14.68;75.41
69208;SHT31;70114;47.690;8.898;2023-10-09T00:38:19;14.69;75.37
69208;SHT31;70114;47.690;8.898;2023-10-09T00:40:45;14.67;75.02
69208;SHT31;70114;47.690;8.898;2023-10-09T00:43:21;14.63;75.68
69208;SHT31;70114;47.690;8.898;2023-10-09T00:45:53;14.67;75.18
69208;SHT31;70114;47.690;8.898;2023-10-09T00:48:19;14.60;75.42
69208;SHT31;70114;47.690;8.898;2023-10-09T00:50:56;14.60;75.59
69208;SHT31;70114;47.690;8.898;2023-10-09T00:53:25;14.61;75.19
69208;SHT31;70114;47.690;8.898;2023-10-09T00:55:59;14.48;75.53
69208;SHT31;70114;47.690;8.898;2023-10-09T00:58:36;14.48;75.59
69208;SHT31;70114;47.690;8.898;2023-10-09T01:01:02;14.54;75.07
69208;SHT31;70114;47.690;8.898;2023-10-09T01:03:29;14.61;75.08
69208;SHT31;70114;47.690;8.898;2023-10-09T01:06:01;14.55;74.89
69208;SHT31;70114;47.690;8.898;2023-10-09T01:08:37;14.61;74.60
69208;SHT31;70114;47.690;8.898;2023-10-09T01:11:07;14.60;74.64
69208;SHT31;70114;47.690;8.898;2023-10-09T01:13:39;14.60;74.80
69208;SHT31;70114;47.690;8.898;2023-10-09T01:16:07;14.61;74.70
69208;SHT31;70114;47.690;8.898;2023-10-09T01:18:38;14.55;74.75
69208;SHT31;70114;47.690;8.898;2023-10-09T01:21:11;14.57;74.48
69208;SHT31;70114;47.690;8.898;2023-10-09T01:23:44;14.47;74.98
69208;SHT31;70114;47.690;8.898;2023-10-09T01:26:36;14.55;74.69
69208;SHT31;70114;47.690;8.898;2023-10-09T01:29:12;14.49;75.19
69208;SHT31;70114;47.690;8.898;2023-10-09T01:31:52;14.45;74.92
69208;SHT31;70114;47.690;8.898;2023-10-09T01:34:39;14.45;75.00
69208;SHT31;70114;47.690;8.898;2023-10-09T01:37:09;14.49;74.80
69208;SHT31;70114;47.690;8.898;2023-10-09T01:39:48;14.47;75.15
69208;SHT31;70114;47.690;8.898;2023-10-09T01:42:20;14.37;75.30
69208;SHT31;70114;47.690;8.898;2023-10-09T01:45:09;14.47;74.54
69208;SHT31;70114;47.690;8.898;2023-10-09T01:47:52;14.49;75.04
69208;SHT31;70114;47.690;8.898;2023-10-09T01:50:19;14.47;74.83
69208;SHT31;70114;47.690;8.898;2023-10-09T01:52:50;14.48;74.59
69208;SHT31;70114;47.690;8.898;2023-10-09T01:55:18;14.45;74.75
69208;SHT31;70114;47.690;8.898;2023-10-09T01:57:55;14.42;74.78
69208;SHT31;70114;47.690;8.898;2023-10-09T02:00:23;14.44;74.76
69208;SHT31;70114;47.690;8.898;2023-10-09T02:02:50;14.38;74.78
69208;SHT31;70114;47.690;8.898;2023-10-09T02:05:16;14.37;74.76
69208;SHT31;70114;47.690;8.898;2023-10-09T02:07:42;14.31;74.76
69208;SHT31;70114;47.690;8.898;2023-10-09T02:10:21;14.31;74.79
69208;SHT31;70114;47.690;8.898;2023-10-09T02:13:07;14.37;74.45
69208;SHT31;70114;47.690;8.898;2023-10-09T02:15:39;14.31;74.59
69208;SHT31;70114;47.690;8.898;2023-10-09T02:20:50;14.18;74.93
69208;SHT31;70114;47.690;8.898;2023-10-09T02:23:36;14.20;74.68
69208;SHT31;70114;47.690;8.898;2023-10-09T02:26:15;14.16;74.69
69208;SHT31;70114;47.690;8.898;2023-10-09T02:28:50;14.17;74.92
69208;SHT31;70114;47.690;8.898;2023-10-09T02:31:26;14.18;74.53
69208;SHT31;70114;47.690;8.898;2023-10-09T02:33:58;14.13;74.40
69208;SHT31;70114;47.690;8.898;2023-10-09T02:36:25;14.14;74.53
69208;SHT31;70114;47.690;8.898;2023-10-09T02:38:53;14.12;74.33
69208;SHT31;70114;47.690;8.898;2023-10-09T02:41:21;14.13;74.37
69208;SHT31;70114;47.690;8.898;2023-10-09T02:43:48;13.99;74.70
69208;SHT31;70114;47.690;8.898;2023-10-09T02:46:17;14.02;74.86
69208;SHT31;70114;47.690;8.898;2023-10-09T02:48:47;13.95;74.83
69208;SHT31;70114;47.690;8.898;2023-10-09T02:51:19;14.03;74.42
69208;SHT31;70114;47.690;8.898;2023-10-09T02:53:54;13.93;74.86
69208;SHT31;70114;47.690;8.898;2023-10-09T02:56:22;14.03;74.49
69208;SHT31;70114;47.690;8.898;2023-10-09T02:58:55;14.00;74.79
69208;SHT31;70114;47.690;8.898;2023-10-09T03:01:31;14.02;74.28
69208;SHT31;70114;47.690;8.898;2023-10-09T03:03:56;13.95;74.62
69208;SHT31;70114;47.690;8.898;2023-10-09T03:06:24;13.95;74.72
69208;SHT31;70114;47.690;8.898;2023-10-09T03:08:59;13.89;75.29
69208;SHT31;70114;47.690;8.898;2023-10-09T03:11:24;13.82;75.33
69208;SHT31;70114;47.690;8.898;2023-10-09T03:13:52;13.86;75.18
69208;SHT31;70114;47.690;8.898;2023-10-09T03:16:20;13.78;75.87
69208;SHT31;70114;47.690;8.898;2023-10-09T03:18:50;13.85;74.96
69208;SHT31;70114;47.690;8.898;2023-10-09T03:21:16;13.85;75.11
69208;SHT31;70114;47.690;8.898;2023-10-09T03:23:45;13.83;75.13
69208;SHT31;70114;47.690;8.898;2023-10-09T03:26:17;13.80;75.27
69208;SHT31;70114;47.690;8.898;2023-10-09T03:28:44;13.72;75.57
69208;SHT31;70114;47.690;8.898;2023-10-09T03:31:10;13.79;75.31
69208;SHT31;70114;47.690;8.898;2023-10-09T03:33:36;13.78;75.30
69208;SHT31;70114;47.690;8.898;2023-10-09T03:36:02;13.70;75.73
69208;SHT31;70114;47.690;8.898;2023-10-09T03:38:27;13.79;75.38
69208;SHT31;70114;47.690;8.898;2023-10-09T03:41:01;13.78;75.48
69208;SHT31;70114;47.690;8.898;2023-10-09T03:43:31;13.66;77.15
69208;SHT31;70114;47.690;8.898;2023-10-09T03:45:59;13.68;76.72
69208;SHT31;70114;47.690;8.898;2023-10-09T03:48:28;13.70;76.35
69208;SHT31;70114;47.690;8.898;2023-10-09T03:50:58;13.72;75.88
69208;SHT31;70114;47.690;8.898;2023-10-09T03:53:46;13.70;76.35
69208;SHT31;70114;47.690;8.898;2023-10-09T03:56:12;13.73;76.36
69208;SHT31;70114;47.690;8.898;2023-10-09T03:58:43;13.75;76.51
69208;SHT31;70114;47.690;8.898;2023-10-09T04:01:14;13.75;76.60
69208;SHT31;70114;47.690;8.898;2023-10-09T04:03:50;13.82;76.24
69208;SHT31;70114;47.690;8.898;2023-10-09T04:06:23;13.78;76.53
69208;SHT31;70114;47.690;8.898;2023-10-09T04:08:54;13.78;76.21
69208;SHT31;70114;47.690;8.898;2023-10-09T04:11:20;13.69;76.56
69208;SHT31;70114;47.690;8.898;2023-10-09T04:13:48;13.68;76.29
69208;SHT31;70114;47.690;8.898;2023-10-09T04:16:25;13.78;76.02
69208;SHT31;70114;47.690;8.898;2023-10-09T04:18:59;13.76;76.36
69208;SHT31;70114;47.690;8.898;2023-10-09T04:21:30;13.78;76.20
69208;SHT31;70114;47.690;8.898;2023-10-09T04:24:06;13.80;76.23
69208;SHT31;70114;47.690;8.898;2023-10-09T04:26:36;13.87;76.34
69208;SHT31;70114;47.690;8.898;2023-10-09T04:29:02;13.89;76.30
69208;SHT31;70114;47.690;8.898;2023-10-09T04:31:28;13.95;76.00
69208;SHT31;70114;47.690;8.898;2023-10-09T04:34:03;13.96;76.56
69208;SHT31;70114;47.690;8.898;2023-10-09T04:36:48;13.99;76.25
69208;SHT31;70114;47.690;8.898;2023-10-09T04:39:22;13.96;76.39
69208;SHT31;70114;47.690;8.898;2023-10-09T04:41:57;13.99;76.46
69208;SHT31;70114;47.690;8.898;2023-10-09T04:44:41;13.97;76.19
69208;SHT31;70114;47.690;8.898;2023-10-09T04:47:35;14.09;75.99
69208;SHT31;70114;47.690;8.898;2023-10-09T04:50:08;14.12;75.58
69208;SHT31;70114;47.690;8.898;2023-10-09T04:52:36;14.16;75.72
69208;SHT31;70114;47.690;8.898;2023-10-09T04:55:02;14.17;75.68
69208;SHT31;70114;47.690;8.898;2023-10-09T04:57:33;14.24;75.03
69208;SHT31;70114;47.690;8.898;2023-10-09T05:00:08;14.31;74.88
69208;SHT31;70114;47.690;8.898;2023-10-09T05:02:52;14.34;74.73
69208;SHT31;70114;47.690;8.898;2023-10-09T05:05:21;14.34;75.31
69208;SHT31;70114;47.690;8.898;2023-10-09T05:08:05;14.36;75.09
69208;SHT31;70114;47.690;8.898;2023-10-09T05:10:49;14.38;74.81
69208;SHT31;70114;47.690;8.898;2023-10-09T05:13:30;14.41;74.58
69208;SHT31;70114;47.690;8.898;2023-10-09T05:16:16;14.36;75.28
69208;SHT31;70114;47.690;8.898;2023-10-09T05:18:51;14.48;74.87
69208;SHT31;70114;47.690;8.898;2023-10-09T05:21:26;14.48;74.53
69208;SHT31;70114;47.690;8.898;2023-10-09T05:23:57;14.42;75.08
69208;SHT31;70114;47.690;8.898;2023-10-09T05:26:38;14.40;74.82
69208;SHT31;70114;47.690;8.898;2023-10-09T05:29:10;14.41;74.87
69208;SHT31;70114;47.690;8.898;2023-10-09T05:31:49;14.34;75.13
69208;SHT31;70114;47.690;8.898;2023-10-09T05:34:30;14.41;74.76
69208;SHT31;70114;47.690;8.898;2023-10-09T05:37:14;14.38;74.61
69208;SHT31;70114;47.690;8.898;2023-10-09T05:39:46;14.27;75.41
69208;SHT31;70114;47.690;8.898;2023-10-09T05:42:30;14.36;74.60
69208;SHT31;70114;47.690;8.898;2023-10-09T05:45:05;14.23;75.00
69208;SHT31;70114;47.690;8.898;2023-10-09T05:47:45;14.28;74.70
69208;SHT31;70114;47.690;8.898;2023-10-09T05:50:20;14.28;74.86
69208;SHT31;70114;47.690;8.898;2023-10-09T05:52:58;14.18;75.35
69208;SHT31;70114;47.690;8.898;2023-10-09T05:55:34;14.17;75.07
69208;SHT31;70114;47.690;8.898;2023-10-09T05:58:41;14.18;75.15
69208;SHT31;70114;47.690;8.898;2023-10-09T06:01:25;14.16;75.18
69208;SHT31;70114;47.690;8.898;2023-10-09T06:04:09;14.24;75.21
69208;SHT31;70114;47.690;8.898;2023-10-09T06:06:44;14.27;75.62
69208;SHT31;70114;47.690;8.898;2023-10-09T06:09:25;14.40;75.81
69208;SHT31;70114;47.690;8.898;2023-10-09T06:12:14;14.47;75.85
69208;SHT31;70114;47.690;8.898;2023-10-09T06:14:57;14.60;75.72
69208;SHT31;70114;47.690;8.898;2023-10-09T06:17:23;14.74;75.29
69208;SHT31;70114;47.690;8.898;2023-10-09T06:19:49;14.79;75.21
69208;SHT31;70114;47.690;8.898;2023-10-09T06:22:15;14.89;74.97
69208;SHT31;70114;47.690;8.898;2023-10-09T06:25:20;15.09;74.15
69208;SHT31;70114;47.690;8.898;2023-10-09T06:27:58;15.18;74.80
69208;SHT31;70114;47.690;8.898;2023-10-09T06:30:23;15.29;73.65
69208;SHT31;70114;47.690;8.898;2023-10-09T06:32:50;15.41;73.50
69208;SHT31;70114;47.690;8.898;2023-10-09T06:35:47;15.58;72.66
69208;SHT31;70114;47.690;8.898;2023-10-09T06:38:22;15.67;73.15
69208;SHT31;70114;47.690;8.898;2023-10-09T06:40:50;15.78;72.68
69208;SHT31;70114;47.690;8.898;2023-10-09T06:43:30;15.91;72.24
69208;SHT31;70114;47.690;8.898;2023-10-09T06:45:58;16.01;71.92
69208;SHT31;70114;47.690;8.898;2023-10-09T06:48:24;16.08;71.36
69208;SHT31;70114;47.690;8.898;2023-10-09T06:51:06;16.22;71.10
69208;SHT31;70114;47.690;8.898;2023-10-09T06:53:55;16.30;71.11
69208;SHT31;70114;47.690;8.898;2023-10-09T06:56:27;16.40;70.50
69208;SHT31;70114;47.690;8.898;2023-10-09T06:59:00;16.50;70.31
69208;SHT31;70114;47.690;8.898;2023-10-09T07:01:54;16.60;70.35
69208;SHT31;70114;47.690;8.898;2023-10-09T07:04:39;16.71;70.42
69208;SHT31;70114;47.690;8.898;2023-10-09T07:07:04;16.77;69.55
69208;SHT31;70114;47.690;8.898;2023-10-09T07:09:41;16.84;69.26
69208;SHT31;70114;47.690;8.898;2023-10-09T07:12:25;16.94;68.91
69208;SHT31;70114;47.690;8.898;2023-10-09T07:18:22;17.11;68.60
69208;SHT31;70114;47.690;8.898;2023-10-09T07:21:06;17.23;68.25
69208;SHT31;70114;47.690;8.898;2023-10-09T07:23:36;17.31;67.63
69208;SHT31;70114;47.690;8.898;2023-10-09T07:26:13;17.49;67.12
69208;SHT31;70114;47.690;8.898;2023-10-09T07:28:57;17.54;67.40
69208;SHT31;70114;47.690;8.898;2023-10-09T07:31:42;17.73;66.82
69208;SHT31;70114;47.690;8.898;2023-10-09T07:34:11;17.83;66.94
69208;SHT31;70114;47.690;8.898;2023-10-09T07:36:55;17.90;65.93
69208;SHT31;70114;47.690;8.898;2023-10-09T07:39:22;18.00;65.88
69208;SHT31;70114;47.690;8.898;2023-10-09T07:41:48;18.12;65.91
69208;SHT31;70114;47.690;8.898;2023-10-09T07:44:41;18.22;65.85
69208;SHT31;70114;47.690;8.898;2023-10-09T07:47:12;18.24;64.99
69208;SHT31;70114;47.690;8.898;2023-10-09T07:49:45;18.36;64.65
69208;SHT31;70114;47.690;8.898;2023-10-09T07:52:19;18.41;64.61
69208;SHT31;70114;47.690;8.898;2023-10-09T07:54:47;18.49;64.87
69208;SHT31;70114;47.690;8.898;2023-10-09T07:57:20;18.59;65.15
69208;SHT31;70114;47.690;8.898;2023-10-09T07:59:51;18.59;64.06
69208;SHT31;70114;47.690;8.898;2023-10-09T08:02:48;18.73;63.54
69208;SHT31;70114;47.690;8.898;2023-10-09T08:05:13;18.80;63.04
69208;SHT31;70114;47.690;8.898;2023-10-09T08:08:05;18.90;62.75
69208;SHT31;70114;47.690;8.898;2023-10-09T08:10:49;18.93;63.03
69208;SHT31;70114;47.690;8.898;2023-10-09T08:13:35;18.92;62.33
69208;SHT31;70114;47.690;8.898;2023-10-09T08:16:25;18.93;62.33
69208;SHT31;70114;47.690;8.898;2023-10-09T08:19:09;18.99;62.91
69208;SHT31;70114;47.690;8.898;2023-10-09T08:21:53;19.08;61.93
69208;SHT31;70114;47.690;8.898;2023-10-09T08:24:37;19.07;61.97
69208;SHT31;70114;47.690;8.898;2023-10-09T08:27:28;19.27;62.23
69208;SHT31;70114;47.690;8.898;2023-10-09T08:29:53;19.35;62.00
69208;SHT31;70114;47.690;8.898;2023-10-09T08:32:41;19.38;62.15
69208;SHT31;70114;47.690;8.898;2023-10-09T08:35:11;19.58;61.45
69208;SHT31;70114;47.690;8.898;2023-10-09T08:37:57;19.57;60.63
69208;SHT31;70114;47.690;8.898;2023-10-09T08:40:31;19.72;60.87
69208;SHT31;70114;47.690;8.898;2023-10-09T08:43:08;19.68;60.62
69208;SHT31;70114;47.690;8.898;2023-10-09T08:45:37;19.83;60.23
69208;SHT31;70114;47.690;8.898;2023-10-09T08:48:05;19.83;60.98
69208;SHT31;70114;47.690;8.898;2023-10-09T08:50:32;19.89;60.19
69208;SHT31;70114;47.690;8.898;2023-10-09T08:53:00;19.96;60.32
69208;SHT31;70114;47.690;8.898;2023-10-09T08:55:26;20.03;59.69
69208;SHT31;70114;47.690;8.898;2023-10-09T08:57:52;20.03;59.46
69208;SHT31;70114;47.690;8.898;2023-10-09T09:00:18;20.09;59.54
69208;SHT31;70114;47.690;8.898;2023-10-09T09:02:50;20.03;59.01
69208;SHT31;70114;47.690;8.898;2023-10-09T09:05:19;20.13;60.02
69208;SHT31;70114;47.690;8.898;2023-10-09T09:07:54;20.14;59.01
69208;SHT31;70114;47.690;8.898;2023-10-09T09:10:30;20.23;59.56
69208;SHT31;70114;47.690;8.898;2023-10-09T09:13:02;20.34;58.95
69208;SHT31;70114;47.690;8.898;2023-10-09T09:15:29;20.31;59.26
69208;SHT31;70114;47.690;8.898;2023-10-09T09:18:10;20.45;58.34
69208;SHT31;70114;47.690;8.898;2023-10-09T09:20:36;20.71;57.86
69208;SHT31;70114;47.690;8.898;2023-10-09T09:23:05;20.78;57.75
69208;SHT31;70114;47.690;8.898;2023-10-09T09:25:47;20.78;57.79
69208;SHT31;70114;47.690;8.898;2023-10-09T09:28:25;20.93;58.83
69208;SHT31;70114;47.690;8.898;2023-10-09T09:31:06;21.03;56.80
69208;SHT31;70114;47.690;8.898;2023-10-09T09:33:38;21.14;56.33
69208;SHT31;70114;47.690;8.898;2023-10-09T09:36:08;21.41;56.75
69208;SHT31;70114;47.690;8.898;2023-10-09T09:39:00;21.57;57.25
69208;SHT31;70114;47.690;8.898;2023-10-09T09:41:40;21.57;55.28
69208;SHT31;70114;47.690;8.898;2023-10-09T09:44:06;21.55;55.67
69208;SHT31;70114;47.690;8.898;2023-10-09T09:46:33;21.51;55.94
69208;SHT31;70114;47.690;8.898;2023-10-09T09:49:05;21.54;56.52
69208;SHT31;70114;47.690;8.898;2023-10-09T09:51:32;21.58;56.43
69208;SHT31;70114;47.690;8.898;2023-10-09T09:53:58;21.68;55.94
69208;SHT31;70114;47.690;8.898;2023-10-09T09:56:29;21.70;56.63
69208;SHT31;70114;47.690;8.898;2023-10-09T09:58:57;21.78;57.04
69208;SHT31;70114;47.690;8.898;2023-10-09T10:01:29;21.65;57.11
69208;SHT31;70114;47.690;8.898;2023-10-09T10:04:07;21.89;56.99
69208;SHT31;70114;47.690;8.898;2023-10-09T10:06:40;21.74;57.30
69208;SHT31;70114;47.690;8.898;2023-10-09T10:09:10;21.51;56.65
69208;SHT31;70114;47.690;8.898;2023-10-09T10:11:45;21.58;57.45
69208;SHT31;70114;47.690;8.898;2023-10-09T10:14:18;21.65;58.01
69208;SHT31;70114;47.690;8.898;2023-10-09T10:17:06;21.77;58.95
69208;SHT31;70114;47.690;8.898;2023-10-09T10:20:00;21.68;58.19
69208;SHT31;70114;47.690;8.898;2023-10-09T10:22:48;21.87;58.06
69208;SHT31;70114;47.690;8.898;2023-10-09T10:25:32;21.85;58.00
69208;SHT31;70114;47.690;8.898;2023-10-09T10:30:46;21.94;57.76
69208;SHT31;70114;47.690;8.898;2023-10-09T10:33:12;21.94;57.60
69208;SHT31;70114;47.690;8.898;2023-10-09T10:35:41;21.94;57.61
69208;SHT31;70114;47.690;8.898;2023-10-09T10:38:29;21.91;57.74
69208;SHT31;70114;47.690;8.898;2023-10-09T10:41:14;21.87;57.56
69208;SHT31;70114;47.690;8.898;2023-10-09T10:43:45;21.84;57.85
69208;SHT31;70114;47.690;8.898;2023-10-09T10:46:18;21.89;57.98
69208;SHT31;70114;47.690;8.898;2023-10-09T10:48:50;21.82;57.92
69208;SHT31;70114;47.690;8.898;2023-10-09T10:51:24;21.88;58.19
69208;SHT31;70114;47.690;8.898;2023-10-09T10:54:00;21.84;57.90
69208;SHT31;70114;47.690;8.898;2023-10-09T10:56:46;21.92;58.29
69208;SHT31;70114;47.690;8.898;2023-10-09T10:59:12;21.99;58.17
69208;SHT31;70114;47.690;8.898;2023-10-09T11:01:38;22.04;58.27
69208;SHT31;70114;47.690;8.898;2023-10-09T11:04:22;22.09;58.52
69208;SHT31;70114;47.690;8.898;2023-10-09T11:06:57;22.01;57.48
69208;SHT31;70114;47.690;8.898;2023-10-09T11:09:44;22.04;57.40
69208;SHT31;70114;47.690;8.898;2023-10-09T11:12:28;22.02;57.54
69208;SHT31;70114;47.690;8.898;2023-10-09T11:15:07;22.02;57.39
69208;SHT31;70114;47.690;8.898;2023-10-09T11:18:09;22.04;57.12
69208;SHT31;70114;47.690;8.898;2023-10-09T11:20:51;22.09;56.80
69208;SHT31;70114;47.690;8.898;2023-10-09T11:23:23;22.06;56.47
69208;SHT31;70114;47.690;8.898;2023-10-09T11:26:05;22.08;56.28
69208;SHT31;70114;47.690;8.898;2023-10-09T11:29:10;22.16;56.62
69208;SHT31;70114;47.690;8.898;2023-10-09T11:32:04;22.08;56.57
69208;SHT31;70114;47.690;8.898;2023-10-09T11:34:31;22.13;56.74
69208;SHT31;70114;47.690;8.898;2023-10-09T11:37:14;22.08;56.48
69208;SHT31;70114;47.690;8.898;2023-10-09T11:39:41;22.06;56.28
69208;SHT31;70114;47.690;8.898;2023-10-09T11:42:18;22.10;56.67
69208;SHT31;70114;47.690;8.898;2023-10-09T11:45:02;22.09;57.05
69208;SHT31;70114;47.690;8.898;2023-10-09T11:47:47;22.09;56.56
69208;SHT31;70114;47.690;8.898;2023-10-09T11:53:11;22.01;57.22
69208;SHT31;70114;47.690;8.898;2023-10-09T11:55:46;22.08;56.87
69208;SHT31;70114;47.690;8.898;2023-10-09T11:58:17;22.16;57.27
69208;SHT31;70114;47.690;8.898;2023-10-09T12:00:52;22.16;56.56
69208;SHT31;70114;47.690;8.898;2023-10-09T12:03:25;22.13;57.23
69208;SHT31;70114;47.690;8.898;2023-10-09T12:06:04;22.10;57.00
69208;SHT31;70114;47.690;8.898;2023-10-09T12:08:33;22.13;57.16
69208;SHT31;70114;47.690;8.898;2023-10-09T12:10:58;22.01;56.85
69208;SHT31;70114;47.690;8.898;2023-10-09T12:13:24;22.09;56.80
69208;SHT31;70114;47.690;8.898;2023-10-09T12:15:51;22.05;56.90
69208;SHT31;70114;47.690;8.898;2023-10-09T12:18:21;22.08;57.02
69208;SHT31;70114;47.690;8.898;2023-10-09T12:20:47;22.06;57.06
69208;SHT31;70114;47.690;8.898;2023-10-09T12:23:27;22.19;57.08
69208;SHT31;70114;47.690;8.898;2023-10-09T12:25:53;22.10;56.59
69208;SHT31;70114;47.690;8.898;2023-10-09T12:28:22;22.12;56.59
69208;SHT31;70114;47.690;8.898;2023-10-09T12:30:48;22.16;56.81
69208;SHT31;70114;47.690;8.898;2023-10-09T12:33:18;22.30;57.09
69208;SHT31;70114;47.690;8.898;2023-10-09T12:35:45;22.29;56.60
69208;SHT31;70114;47.690;8.898;2023-10-09T12:38:13;22.20;57.01
69208;SHT31;70114;47.690;8.898;2023-10-09T12:40:44;22.25;56.98
69208;SHT31;70114;47.690;8.898;2023-10-09T12:43:19;22.28;56.34
69208;SHT31;70114;47.690;8.898;2023-10-09T12:45:48;22.23;57.45
69208;SHT31;70114;47.690;8.898;2023-10-09T12:48:13;22.28;56.56
69208;SHT31;70114;47.690;8.898;2023-10-09T12:50:40;22.23;56.49
69208;SHT31;70114;47.690;8.898;2023-10-09T12:53:10;22.16;55.96
69208;SHT31;70114;47.690;8.898;2023-10-09T12:55:39;22.22;56.53
69208;SHT31;70114;47.690;8.898;2023-10-09T12:58:09;22.25;56.75
69208;SHT31;70114;47.690;8.898;2023-10-09T13:00:40;22.15;56.52
69208;SHT31;70114;47.690;8.898;2023-10-09T13:03:10;22.20;57.26
69208;SHT31;70114;47.690;8.898;2023-10-09T13:05:53;22.23;56.65
69208;SHT31;70114;47.690;8.898;2023-10-09T13:08:26;22.19;56.53
69208;SHT31;70114;47.690;8.898;2023-10-09T13:11:04;22.19;57.21
69208;SHT31;70114;47.690;8.898;2023-10-09T13:13:36;22.10;56.80
69208;SHT31;70114;47.690;8.898;2023-10-09T13:16:15;22.15;57.15
69208;SHT31;70114;47.690;8.898;2023-10-09T13:18:50;22.08;56.73
69208;SHT31;70114;47.690;8.898;2023-10-09T13:21:22;22.10;57.04
69208;SHT31;70114;47.690;8.898;2023-10-09T13:23:48;22.10;56.64
69208;SHT31;70114;47.690;8.898;2023-10-09T13:26:16;22.10;57.66
69208;SHT31;70114;47.690;8.898;2023-10-09T13:28:49;22.09;57.36
69208;SHT31;70114;47.690;8.898;2023-10-09T13:31:15;22.04;58.74
69208;SHT31;70114;47.690;8.898;2023-10-09T13:33:44;21.99;59.24
69208;SHT31;70114;47.690;8.898;2023-10-09T13:36:10;21.89;59.10
69208;SHT31;70114;47.690;8.898;2023-10-09T13:38:55;21.99;58.55
69208;SHT31;70114;47.690;8.898;2023-10-09T13:41:24;22.08;58.85
69208;SHT31;70114;47.690;8.898;2023-10-09T13:43:56;22.12;59.04
69208;SHT31;70114;47.690;8.898;2023-10-09T13:46:24;22.10;60.03
69208;SHT31;70114;47.690;8.898;2023-10-09T13:48:50;22.19;59.61
69208;SHT31;70114;47.690;8.898;2023-10-09T13:51:18;22.22;59.40
69208;SHT31;70114;47.690;8.898;2023-10-09T13:53:45;22.20;60.13
69208;SHT31;70114;47.690;8.898;2023-10-09T13:56:12;22.29;60.10
69208;SHT31;70114;47.690;8.898;2023-10-09T13:58:40;22.32;60.27
69208;SHT31;70114;47.690;8.898;2023-10-09T14:01:09;22.37;59.54
69208;SHT31;70114;47.690;8.898;2023-10-09T14:03:35;22.42;59.66
69208;SHT31;70114;47.690;8.898;2023-10-09T14:06:00;22.43;60.13
69208;SHT31;70114;47.690;8.898;2023-10-09T14:08:36;22.47;60.02
69208;SHT31;70114;47.690;8.898;2023-10-09T14:11:08;22.46;60.53
69208;SHT31;70114;47.690;8.898;2023-10-09T14:13:41;22.49;59.89
69208;SHT31;70114;47.690;8.898;2023-10-09T14:16:06;22.53;58.69
69208;SHT31;70114;47.690;8.898;2023-10-09T14:18:33;22.56;58.65
69208;SHT31;70114;47.690;8.898;2023-10-09T14:21:02;22.54;58.52
69208;SHT31;70114;47.690;8.898;2023-10-09T14:23:31;22.54;59.61
69208;SHT31;70114;47.690;8.898;2023-10-09T14:25:59;22.53;57.95
69208;SHT31;70114;47.690;8.898;2023-10-09T14:28:27;22.56;58.05
69208;SHT31;70114;47.690;8.898;2023-10-09T14:30:54;22.54;57.57
69208;SHT31;70114;47.690;8.898;2023-10-09T14:33:24;22.52;57.77
69208;SHT31;70114;47.690;8.898;2023-10-09T14:35:50;22.54;57.12
69208;SHT31;70114;47.690;8.898;2023-10-09T14:38:18;22.61;57.75
69208;SHT31;70114;47.690;8.898;2023-10-09T14:40:47;22.61;57.85
69208;SHT31;70114;47.690;8.898;2023-10-09T14:43:13;22.64;58.06
69208;SHT31;70114;47.690;8.898;2023-10-09T14:45:48;22.66;59.36
69208;SHT31;70114;47.690;8.898;2023-10-09T14:48:17;22.71;58.34
69208;SHT31;70114;47.690;8.898;2023-10-09T14:50:54;22.77;56.39
69208;SHT31;70114;47.690;8.898;2023-10-09T14:53:20;22.78;57.66
69208;SHT31;70114;47.690;8.898;2023-10-09T14:55:46;23.00;57.29
69208;SHT31;70114;47.690;8.898;2023-10-09T14:58:13;23.08;55.81
69208;SHT31;70114;47.690;8.898;2023-10-09T15:00:39;23.11;56.61
69208;SHT31;70114;47.690;8.898;2023-10-09T15:03:11;23.19;56.29
69208;SHT31;70114;47.690;8.898;2023-10-09T15:05:41;23.25;56.65
69208;SHT31;70114;47.690;8.898;2023-10-09T15:08:07;23.25;59.33
69208;SHT31;70114;47.690;8.898;2023-10-09T15:10:43;23.31;60.00
69208;SHT31;70114;47.690;8.898;2023-10-09T15:13:09;23.33;60.39
69208;SHT31;70114;47.690;8.898;2023-10-09T15:15:40;23.33;60.56
69208;SHT31;70114;47.690;8.898;2023-10-09T15:18:06;23.18;63.43
69208;SHT31;70114;47.690;8.898;2023-10-09T15:20:31;23.18;63.27
69208;SHT31;70114;47.690;8.898;2023-10-09T15:22:56;23.12;64.42
69208;SHT31;70114;47.690;8.898;2023-10-09T15:25:22;23.12;64.67
69208;SHT31;70114;47.690;8.898;2023-10-09T15:27:47;23.08;64.75
69208;SHT31;70114;47.690;8.898;2023-10-09T15:30:13;23.02;64.90
69208;SHT31;70114;47.690;8.898;2023-10-09T15:32:42;22.98;65.31
69208;SHT31;70114;47.690;8.898;2023-10-09T15:35:08;22.91;65.41
69208;SHT31;70114;47.690;8.898;2023-10-09T15:37:38;22.87;65.97
69208;SHT31;70114;47.690;8.898;2023-10-09T15:40:15;22.81;66.11
69208;SHT31;70114;47.690;8.898;2023-10-09T15:42:44;22.75;66.44
69208;SHT31;70114;47.690;8.898;2023-10-09T15:45:18;22.68;66.81
69208;SHT31;70114;47.690;8.898;2023-10-09T15:47:47;22.63;66.78
69208;SHT31;70114;47.690;8.898;2023-10-09T15:50:22;22.54;67.36
69208;SHT31;70114;47.690;8.898;2023-10-09T15:52:52;22.46;67.75
69208;SHT31;70114;47.690;8.898;2023-10-09T15:55:21;22.39;67.80
69208;SHT31;70114;47.690;8.898;2023-10-09T15:57:50;22.39;67.77
69208;SHT31;70114;47.690;8.898;2023-10-09T16:00:18;22.29;67.66
69208;SHT31;70114;47.690;8.898;2023-10-09T16:02:49;22.28;68.00
69208;SHT31;70114;47.690;8.898;2023-10-09T16:05:38;22.18;68.24
69208;SHT31;70114;47.690;8.898;2023-10-09T16:08:06;22.01;70.05
69208;SHT31;70114;47.690;8.898;2023-10-09T16:10:31;21.97;69.94
69208;SHT31;70114;47.690;8.898;2023-10-09T16:12:57;21.92;70.13
69208;SHT31;70114;47.690;8.898;2023-10-09T16:15:28;21.94;69.63
69208;SHT31;70114;47.690;8.898;2023-10-09T16:17:54;21.85;70.20
69208;SHT31;70114;47.690;8.898;2023-10-09T16:20:32;21.78;70.18